sensor_id;sensor_type;location;lat;lon;timestamp;P1;durP1;ratioP1;P2;durP2;ratioP2
56373;SDS011;58212;47.034;7.376;2024-01-16T00:01:04;5.47;;;4.13;;
56373;SDS011;58212;47.034;7.376;2024-01-16T00:03:31;5.93;;;3.90;;
56373;SDS011;58212;47.034;7.376;2024-01-16T00:05:59;6.90;;;4.47;;
56373;SDS011;58212;47.034;7.376;2024-01-16T00:08:26;4.53;;;3.63;;
56373;SDS011;58212;47.034;7.376;2024-01-16T00:10:53;5.05;;;3.60;;
56373;SDS011;58212;47.034;7.376;2024-01-16T00:13:21;5.55;;;3.40;;
56373;SDS011;58212;47.034;7.376;2024-01-16T00:15:49;5.55;;;4.13;;
56373;SDS011;58212;47.034;7.376;2024-01-16T00:18:23;7.50;;;4.40;;
56373;SDS011;58212;47.034;7.376;2024-01-16T00:20:51;6.57;;;4.22;;
56373;SDS011;58212;47.034;7.376;2024-01-16T00:23:17;5.93;;;4.35;;
56373;SDS011;58212;47.034;7.376;2024-01-16T00:25:44;5.50;;;3.83;;
56373;SDS011;58212;47.034;7.376;2024-01-16T00:28:11;6.18;;;4.25;;
56373;SDS011;58212;47.034;7.376;2024-01-16T00:30:39;6.30;;;4.32;;
56373;SDS011;58212;47.034;7.376;2024-01-16T00:33:06;7.03;;;4.78;;
56373;SDS011;58212;47.034;7.376;2024-01-16T00:35:32;7.78;;;4.65;;
56373;SDS011;58212;47.034;7.376;2024-01-16T00:37:59;5.97;;;4.22;;
56373;SDS011;58212;47.034;7.376;2024-01-16T00:40:26;6.95;;;4.13;;
56373;SDS011;58212;47.034;7.376;2024-01-16T00:42:53;5.63;;;4.43;;
56373;SDS011;58212;47.034;7.376;2024-01-16T00:45:20;6.68;;;4.57;;
56373;SDS011;58212;47.034;7.376;2024-01-16T00:47:49;7.20;;;5.07;;
56373;SDS011;58212;47.034;7.376;2024-01-16T00:50:16;7.43;;;5.53;;
56373;SDS011;58212;47.034;7.376;2024-01-16T00:52:42;6.20;;;4.35;;
56373;SDS011;58212;47.034;7.376;2024-01-16T00:55:09;7.32;;;4.88;;
56373;SDS011;58212;47.034;7.376;2024-01-16T00:57:36;7.68;;;5.03;;
56373;SDS011;58212;47.034;7.376;2024-01-16T01:00:03;6.82;;;5.45;;
56373;SDS011;58212;47.034;7.376;2024-01-16T01:02:31;9.52;;;5.57;;
56373;SDS011;58212;47.034;7.376;2024-01-16T01:05:00;7.88;;;6.05;;
56373;SDS011;58212;47.034;7.376;2024-01-16T01:07:26;7.97;;;5.95;;
56373;SDS011;58212;47.034;7.376;2024-01-16T01:09:53;8.27;;;5.88;;
56373;SDS011;58212;47.034;7.376;2024-01-16T01:12:20;8.10;;;6.50;;
56373;SDS011;58212;47.034;7.376;2024-01-16T01:14:48;7.35;;;5.43;;
56373;SDS011;58212;47.034;7.376;2024-01-16T01:17:15;8.05;;;5.85;;
56373;SDS011;58212;47.034;7.376;2024-01-16T01:19:42;9.05;;;5.40;;
56373;SDS011;58212;47.034;7.376;2024-01-16T01:22:12;8.98;;;5.43;;
56373;SDS011;58212;47.034;7.376;2024-01-16T01:24:39;9.25;;;5.47;;
56373;SDS011;58212;47.034;7.376;2024-01-16T01:27:06;8.77;;;5.60;;
56373;SDS011;58212;47.034;7.376;2024-01-16T01:29:33;7.85;;;5.55;;
56373;SDS011;58212;47.034;7.376;2024-01-16T01:32:00;8.45;;;5.50;;
56373;SDS011;58212;47.034;7.376;2024-01-16T01:34:27;7.47;;;5.57;;
56373;SDS011;58212;47.034;7.376;2024-01-16T01:36:54;6.25;;;5.18;;
56373;SDS011;58212;47.034;7.376;2024-01-16T01:39:24;6.97;;;5.15;;
56373;SDS011;58212;47.034;7.376;2024-01-16T01:41:51;8.57;;;5.22;;
56373;SDS011;58212;47.034;7.376;2024-01-16T01:44:18;8.43;;;5.30;;
56373;SDS011;58212;47.034;7.376;2024-01-16T01:46:44;9.20;;;6.18;;
56373;SDS011;58212;47.034;7.376;2024-01-16T01:49:12;8.60;;;5.88;;
56373;SDS011;58212;47.034;7.376;2024-01-16T01:51:40;8.35;;;5.82;;
56373;SDS011;58212;47.034;7.376;2024-01-16T01:54:08;10.25;;;6.28;;
56373;SDS011;58212;47.034;7.376;2024-01-16T01:56:38;7.38;;;5.70;;
56373;SDS011;58212;47.034;7.376;2024-01-16T01:59:05;8.02;;;6.00;;
56373;SDS011;58212;47.034;7.376;2024-01-16T02:01:58;7.55;;;5.82;;
56373;SDS011;58212;47.034;7.376;2024-01-16T02:04:28;8.20;;;5.82;;
56373;SDS011;58212;47.034;7.376;2024-01-16T02:06:57;9.23;;;5.93;;
56373;SDS011;58212;47.034;7.376;2024-01-16T02:09:24;7.32;;;5.60;;
56373;SDS011;58212;47.034;7.376;2024-01-16T02:11:52;7.82;;;5.68;;
56373;SDS011;58212;47.034;7.376;2024-01-16T02:14:19;9.10;;;6.10;;
56373;SDS011;58212;47.034;7.376;2024-01-16T02:16:46;8.55;;;6.00;;
56373;SDS011;58212;47.034;7.376;2024-01-16T02:19:13;8.00;;;5.75;;
56373;SDS011;58212;47.034;7.376;2024-01-16T02:21:41;8.02;;;5.53;;
56373;SDS011;58212;47.034;7.376;2024-01-16T02:24:12;8.75;;;5.85;;
56373;SDS011;58212;47.034;7.376;2024-01-16T02:26:40;7.32;;;5.65;;
56373;SDS011;58212;47.034;7.376;2024-01-16T02:29:07;9.10;;;5.80;;
56373;SDS011;58212;47.034;7.376;2024-01-16T02:31:34;8.70;;;6.00;;
56373;SDS011;58212;47.034;7.376;2024-01-16T02:34:01;10.80;;;6.07;;
56373;SDS011;58212;47.034;7.376;2024-01-16T02:36:29;11.05;;;6.55;;
56373;SDS011;58212;47.034;7.376;2024-01-16T02:38:56;9.02;;;6.03;;
56373;SDS011;58212;47.034;7.376;2024-01-16T02:41:24;9.52;;;6.88;;
56373;SDS011;58212;47.034;7.376;2024-01-16T02:43:51;10.48;;;6.32;;
56373;SDS011;58212;47.034;7.376;2024-01-16T02:46:18;10.48;;;6.10;;
56373;SDS011;58212;47.034;7.376;2024-01-16T02:48:44;9.90;;;6.50;;
56373;SDS011;58212;47.034;7.376;2024-01-16T02:51:11;9.88;;;6.20;;
56373;SDS011;58212;47.034;7.376;2024-01-16T02:53:38;9.32;;;6.82;;
56373;SDS011;58212;47.034;7.376;2024-01-16T02:56:05;9.88;;;6.90;;
56373;SDS011;58212;47.034;7.376;2024-01-16T02:58:35;10.48;;;7.30;;
56373;SDS011;58212;47.034;7.376;2024-01-16T03:01:02;9.45;;;6.55;;
56373;SDS011;58212;47.034;7.376;2024-01-16T03:03:29;9.93;;;6.55;;
56373;SDS011;58212;47.034;7.376;2024-01-16T03:05:56;11.70;;;7.05;;
56373;SDS011;58212;47.034;7.376;2024-01-16T03:08:24;9.57;;;6.63;;
56373;SDS011;58212;47.034;7.376;2024-01-16T03:10:51;11.65;;;7.72;;
56373;SDS011;58212;47.034;7.376;2024-01-16T03:13:19;11.88;;;8.18;;
56373;SDS011;58212;47.034;7.376;2024-01-16T03:15:47;10.75;;;6.82;;
56373;SDS011;58212;47.034;7.376;2024-01-16T03:18:14;10.98;;;7.10;;
56373;SDS011;58212;47.034;7.376;2024-01-16T03:20:42;9.52;;;6.72;;
56373;SDS011;58212;47.034;7.376;2024-01-16T03:23:09;10.13;;;6.60;;
56373;SDS011;58212;47.034;7.376;2024-01-16T03:25:36;10.73;;;6.70;;
56373;SDS011;58212;47.034;7.376;2024-01-16T03:28:04;9.85;;;6.32;;
56373;SDS011;58212;47.034;7.376;2024-01-16T03:30:33;9.77;;;6.63;;
56373;SDS011;58212;47.034;7.376;2024-01-16T03:33:02;10.18;;;7.30;;
56373;SDS011;58212;47.034;7.376;2024-01-16T03:35:30;10.23;;;6.93;;
56373;SDS011;58212;47.034;7.376;2024-01-16T03:37:57;8.60;;;6.30;;
56373;SDS011;58212;47.034;7.376;2024-01-16T03:40:23;11.50;;;7.82;;
56373;SDS011;58212;47.034;7.376;2024-01-16T03:42:50;11.43;;;7.22;;
56373;SDS011;58212;47.034;7.376;2024-01-16T03:45:17;9.30;;;7.07;;
56373;SDS011;58212;47.034;7.376;2024-01-16T03:47:44;11.55;;;7.18;;
56373;SDS011;58212;47.034;7.376;2024-01-16T03:50:12;11.40;;;7.40;;
56373;SDS011;58212;47.034;7.376;2024-01-16T03:52:39;9.80;;;6.72;;
56373;SDS011;58212;47.034;7.376;2024-01-16T03:55:07;13.35;;;7.72;;
56373;SDS011;58212;47.034;7.376;2024-01-16T03:57:34;11.52;;;7.35;;
56373;SDS011;58212;47.034;7.376;2024-01-16T04:00:01;10.57;;;7.25;;
56373;SDS011;58212;47.034;7.376;2024-01-16T04:02:31;10.80;;;7.25;;
56373;SDS011;58212;47.034;7.376;2024-01-16T04:04:58;11.70;;;7.03;;
56373;SDS011;58212;47.034;7.376;2024-01-16T04:07:28;10.82;;;6.90;;
56373;SDS011;58212;47.034;7.376;2024-01-16T04:09:55;7.50;;;5.72;;
56373;SDS011;58212;47.034;7.376;2024-01-16T04:12:21;11.95;;;7.07;;
56373;SDS011;58212;47.034;7.376;2024-01-16T04:14:48;13.48;;;7.00;;
56373;SDS011;58212;47.034;7.376;2024-01-16T04:17:16;10.00;;;7.05;;
56373;SDS011;58212;47.034;7.376;2024-01-16T04:19:42;12.02;;;7.00;;
56373;SDS011;58212;47.034;7.376;2024-01-16T04:22:09;9.70;;;6.68;;
56373;SDS011;58212;47.034;7.376;2024-01-16T04:24:38;11.35;;;7.57;;
56373;SDS011;58212;47.034;7.376;2024-01-16T04:27:05;9.45;;;7.40;;
56373;SDS011;58212;47.034;7.376;2024-01-16T04:29:31;10.73;;;7.03;;
56373;SDS011;58212;47.034;7.376;2024-01-16T04:31:59;9.70;;;6.80;;
56373;SDS011;58212;47.034;7.376;2024-01-16T04:34:26;11.40;;;6.93;;
56373;SDS011;58212;47.034;7.376;2024-01-16T04:36:53;10.07;;;6.60;;
56373;SDS011;58212;47.034;7.376;2024-01-16T04:39:19;9.32;;;6.63;;
56373;SDS011;58212;47.034;7.376;2024-01-16T04:41:49;10.20;;;7.10;;
56373;SDS011;58212;47.034;7.376;2024-01-16T04:44:16;10.23;;;6.75;;
56373;SDS011;58212;47.034;7.376;2024-01-16T04:46:42;8.20;;;6.40;;
56373;SDS011;58212;47.034;7.376;2024-01-16T04:49:09;13.23;;;8.73;;
56373;SDS011;58212;47.034;7.376;2024-01-16T04:51:37;14.17;;;10.07;;
56373;SDS011;58212;47.034;7.376;2024-01-16T04:54:04;12.40;;;8.93;;
56373;SDS011;58212;47.034;7.376;2024-01-16T04:56:31;13.43;;;8.70;;
56373;SDS011;58212;47.034;7.376;2024-01-16T04:58:59;13.43;;;7.85;;
56373;SDS011;58212;47.034;7.376;2024-01-16T05:01:51;12.07;;;7.43;;
56373;SDS011;58212;47.034;7.376;2024-01-16T05:04:19;9.90;;;7.00;;
56373;SDS011;58212;47.034;7.376;2024-01-16T05:06:49;12.88;;;8.23;;
56373;SDS011;58212;47.034;7.376;2024-01-16T05:09:18;9.75;;;7.03;;
56373;SDS011;58212;47.034;7.376;2024-01-16T05:11:45;12.15;;;6.95;;
56373;SDS011;58212;47.034;7.376;2024-01-16T05:14:13;12.15;;;7.68;;
56373;SDS011;58212;47.034;7.376;2024-01-16T05:16:40;13.20;;;8.38;;
56373;SDS011;58212;47.034;7.376;2024-01-16T05:19:07;13.73;;;8.23;;
56373;SDS011;58212;47.034;7.376;2024-01-16T05:21:34;13.52;;;8.75;;
56373;SDS011;58212;47.034;7.376;2024-01-16T05:24:02;11.90;;;7.90;;
56373;SDS011;58212;47.034;7.376;2024-01-16T05:26:29;13.38;;;8.90;;
56373;SDS011;58212;47.034;7.376;2024-01-16T05:28:55;12.52;;;8.75;;
56373;SDS011;58212;47.034;7.376;2024-01-16T05:31:23;10.25;;;7.57;;
56373;SDS011;58212;47.034;7.376;2024-01-16T05:33:51;11.82;;;8.38;;
56373;SDS011;58212;47.034;7.376;2024-01-16T05:36:18;11.95;;;8.10;;
56373;SDS011;58212;47.034;7.376;2024-01-16T05:38:46;10.95;;;7.13;;
56373;SDS011;58212;47.034;7.376;2024-01-16T05:41:13;13.25;;;7.93;;
56373;SDS011;58212;47.034;7.376;2024-01-16T05:43:40;10.75;;;7.03;;
56373;SDS011;58212;47.034;7.376;2024-01-16T05:46:07;12.32;;;7.78;;
56373;SDS011;58212;47.034;7.376;2024-01-16T05:48:36;12.93;;;7.78;;
56373;SDS011;58212;47.034;7.376;2024-01-16T05:51:04;9.70;;;7.00;;
56373;SDS011;58212;47.034;7.376;2024-01-16T05:53:31;12.23;;;8.05;;
56373;SDS011;58212;47.034;7.376;2024-01-16T05:55:58;10.48;;;7.18;;
56373;SDS011;58212;47.034;7.376;2024-01-16T05:58:26;10.20;;;7.38;;
56373;SDS011;58212;47.034;7.376;2024-01-16T06:00:53;11.35;;;6.82;;
56373;SDS011;58212;47.034;7.376;2024-01-16T06:03:21;12.98;;;8.00;;
56373;SDS011;58212;47.034;7.376;2024-01-16T06:05:49;11.38;;;7.20;;
56373;SDS011;58212;47.034;7.376;2024-01-16T06:08:15;11.02;;;7.47;;
56373;SDS011;58212;47.034;7.376;2024-01-16T06:10:42;10.48;;;6.70;;
56373;SDS011;58212;47.034;7.376;2024-01-16T06:13:09;11.27;;;6.87;;
56373;SDS011;58212;47.034;7.376;2024-01-16T06:15:36;10.20;;;6.57;;
56373;SDS011;58212;47.034;7.376;2024-01-16T06:18:03;11.73;;;7.35;;
56373;SDS011;58212;47.034;7.376;2024-01-16T06:20:30;9.90;;;6.93;;
56373;SDS011;58212;47.034;7.376;2024-01-16T06:22:59;11.07;;;6.55;;
56373;SDS011;58212;47.034;7.376;2024-01-16T06:25:26;9.60;;;6.82;;
56373;SDS011;58212;47.034;7.376;2024-01-16T06:27:53;11.55;;;7.15;;
56373;SDS011;58212;47.034;7.376;2024-01-16T06:30:21;11.88;;;7.55;;
56373;SDS011;58212;47.034;7.376;2024-01-16T06:32:48;10.38;;;7.40;;
56373;SDS011;58212;47.034;7.376;2024-01-16T06:35:15;13.85;;;7.65;;
56373;SDS011;58212;47.034;7.376;2024-01-16T06:37:42;11.60;;;8.23;;
56373;SDS011;58212;47.034;7.376;2024-01-16T06:40:11;13.30;;;7.90;;
56373;SDS011;58212;47.034;7.376;2024-01-16T06:42:38;11.55;;;7.38;;
56373;SDS011;58212;47.034;7.376;2024-01-16T06:45:05;9.75;;;7.35;;
56373;SDS011;58212;47.034;7.376;2024-01-16T06:47:32;9.93;;;7.13;;
56373;SDS011;58212;47.034;7.376;2024-01-16T06:49:59;13.00;;;8.13;;
56373;SDS011;58212;47.034;7.376;2024-01-16T06:52:26;10.40;;;7.50;;
56373;SDS011;58212;47.034;7.376;2024-01-16T06:54:53;11.55;;;6.70;;
56373;SDS011;58212;47.034;7.376;2024-01-16T06:57:21;10.45;;;6.97;;
56373;SDS011;58212;47.034;7.376;2024-01-16T06:59:48;10.32;;;6.80;;
56373;SDS011;58212;47.034;7.376;2024-01-16T07:02:14;10.27;;;6.63;;
56373;SDS011;58212;47.034;7.376;2024-01-16T07:04:42;12.18;;;7.20;;
56373;SDS011;58212;47.034;7.376;2024-01-16T07:07:08;12.90;;;7.20;;
56373;SDS011;58212;47.034;7.376;2024-01-16T07:09:35;10.13;;;6.75;;
56373;SDS011;58212;47.034;7.376;2024-01-16T07:12:02;11.60;;;7.70;;
56373;SDS011;58212;47.034;7.376;2024-01-16T07:14:31;11.07;;;6.80;;
56373;SDS011;58212;47.034;7.376;2024-01-16T07:16:59;10.13;;;7.20;;
56373;SDS011;58212;47.034;7.376;2024-01-16T07:19:26;13.10;;;7.70;;
56373;SDS011;58212;47.034;7.376;2024-01-16T07:21:53;12.13;;;7.72;;
56373;SDS011;58212;47.034;7.376;2024-01-16T07:24:20;10.73;;;7.05;;
56373;SDS011;58212;47.034;7.376;2024-01-16T07:26:49;11.13;;;6.73;;
56373;SDS011;58212;47.034;7.376;2024-01-16T07:29:15;9.83;;;6.60;;
56373;SDS011;58212;47.034;7.376;2024-01-16T07:31:43;11.75;;;6.45;;
56373;SDS011;58212;47.034;7.376;2024-01-16T07:34:10;11.37;;;7.47;;
56373;SDS011;58212;47.034;7.376;2024-01-16T07:36:37;10.67;;;6.97;;
56373;SDS011;58212;47.034;7.376;2024-01-16T07:39:04;11.75;;;7.32;;
56373;SDS011;58212;47.034;7.376;2024-01-16T07:41:31;9.63;;;6.40;;
56373;SDS011;58212;47.034;7.376;2024-01-16T07:43:58;9.50;;;6.75;;
56373;SDS011;58212;47.034;7.376;2024-01-16T07:46:25;10.82;;;6.63;;
56373;SDS011;58212;47.034;7.376;2024-01-16T07:48:53;10.40;;;6.70;;
56373;SDS011;58212;47.034;7.376;2024-01-16T07:51:19;11.70;;;6.87;;
56373;SDS011;58212;47.034;7.376;2024-01-16T07:53:46;9.53;;;6.67;;
56373;SDS011;58212;47.034;7.376;2024-01-16T07:56:14;13.60;;;7.03;;
56373;SDS011;58212;47.034;7.376;2024-01-16T07:58:41;12.27;;;7.80;;
56373;SDS011;58212;47.034;7.376;2024-01-16T08:01:07;12.02;;;7.50;;
56373;SDS011;58212;47.034;7.376;2024-01-16T08:03:34;9.85;;;6.55;;
56373;SDS011;58212;47.034;7.376;2024-01-16T08:06:02;14.50;;;7.60;;
56373;SDS011;58212;47.034;7.376;2024-01-16T08:08:29;10.82;;;6.75;;
56373;SDS011;58212;47.034;7.376;2024-01-16T08:10:59;10.73;;;7.45;;
56373;SDS011;58212;47.034;7.376;2024-01-16T08:13:25;11.43;;;8.07;;
56373;SDS011;58212;47.034;7.376;2024-01-16T08:15:53;12.05;;;7.65;;
56373;SDS011;58212;47.034;7.376;2024-01-16T08:18:20;12.50;;;8.18;;
56373;SDS011;58212;47.034;7.376;2024-01-16T08:20:47;12.05;;;7.90;;
56373;SDS011;58212;47.034;7.376;2024-01-16T08:23:15;11.70;;;7.75;;
56373;SDS011;58212;47.034;7.376;2024-01-16T08:25:42;11.98;;;7.65;;
56373;SDS011;58212;47.034;7.376;2024-01-16T08:28:09;11.27;;;8.15;;
56373;SDS011;58212;47.034;7.376;2024-01-16T08:30:36;11.83;;;8.07;;
56373;SDS011;58212;47.034;7.376;2024-01-16T08:33:03;10.63;;;7.60;;
56373;SDS011;58212;47.034;7.376;2024-01-16T08:35:30;11.50;;;7.18;;
56373;SDS011;58212;47.034;7.376;2024-01-16T08:37:57;10.52;;;6.82;;
56373;SDS011;58212;47.034;7.376;2024-01-16T08:40:25;8.90;;;6.35;;
56373;SDS011;58212;47.034;7.376;2024-01-16T08:42:52;9.88;;;6.43;;
56373;SDS011;58212;47.034;7.376;2024-01-16T08:45:20;10.55;;;6.70;;
56373;SDS011;58212;47.034;7.376;2024-01-16T08:47:47;11.95;;;7.30;;
56373;SDS011;58212;47.034;7.376;2024-01-16T08:50:14;11.68;;;6.93;;
56373;SDS011;58212;47.034;7.376;2024-01-16T08:52:41;11.00;;;7.60;;
56373;SDS011;58212;47.034;7.376;2024-01-16T08:55:08;11.82;;;8.52;;
56373;SDS011;58212;47.034;7.376;2024-01-16T08:57:37;11.02;;;7.35;;
56373;SDS011;58212;47.034;7.376;2024-01-16T09:00:05;15.23;;;9.60;;
56373;SDS011;58212;47.034;7.376;2024-01-16T09:02:34;11.88;;;8.18;;
56373;SDS011;58212;47.034;7.376;2024-01-16T09:05:00;12.50;;;7.53;;
56373;SDS011;58212;47.034;7.376;2024-01-16T09:07:30;11.07;;;7.32;;
56373;SDS011;58212;47.034;7.376;2024-01-16T09:09:56;11.98;;;7.43;;
56373;SDS011;58212;47.034;7.376;2024-01-16T09:12:23;10.18;;;6.53;;
56373;SDS011;58212;47.034;7.376;2024-01-16T09:14:53;11.10;;;7.05;;
56373;SDS011;58212;47.034;7.376;2024-01-16T09:17:20;8.55;;;7.13;;
56373;SDS011;58212;47.034;7.376;2024-01-16T09:19:47;9.93;;;7.18;;
56373;SDS011;58212;47.034;7.376;2024-01-16T09:22:14;11.55;;;7.75;;
56373;SDS011;58212;47.034;7.376;2024-01-16T09:24:41;11.27;;;7.07;;
56373;SDS011;58212;47.034;7.376;2024-01-16T09:27:08;10.38;;;7.03;;
56373;SDS011;58212;47.034;7.376;2024-01-16T09:29:35;14.00;;;7.57;;
56373;SDS011;58212;47.034;7.376;2024-01-16T09:32:03;12.98;;;7.95;;
56373;SDS011;58212;47.034;7.376;2024-01-16T09:34:30;12.85;;;7.50;;
56373;SDS011;58212;47.034;7.376;2024-01-16T09:36:58;15.38;;;9.57;;
56373;SDS011;58212;47.034;7.376;2024-01-16T09:39:28;11.07;;;7.47;;
56373;SDS011;58212;47.034;7.376;2024-01-16T09:41:57;10.15;;;7.57;;
56373;SDS011;58212;47.034;7.376;2024-01-16T09:44:26;10.15;;;7.63;;
56373;SDS011;58212;47.034;7.376;2024-01-16T09:46:53;11.00;;;7.93;;
56373;SDS011;58212;47.034;7.376;2024-01-16T09:49:23;10.77;;;7.03;;
56373;SDS011;58212;47.034;7.376;2024-01-16T09:51:52;11.27;;;7.93;;
56373;SDS011;58212;47.034;7.376;2024-01-16T09:54:18;12.98;;;8.13;;
56373;SDS011;58212;47.034;7.376;2024-01-16T09:56:45;12.05;;;8.38;;
56373;SDS011;58212;47.034;7.376;2024-01-16T09:59:17;12.05;;;7.78;;
56373;SDS011;58212;47.034;7.376;2024-01-16T10:01:48;10.38;;;7.78;;
56373;SDS011;58212;47.034;7.376;2024-01-16T10:04:16;12.90;;;7.63;;
56373;SDS011;58212;47.034;7.376;2024-01-16T10:06:45;11.25;;;8.25;;
56373;SDS011;58212;47.034;7.376;2024-01-16T10:09:12;11.48;;;7.90;;
56373;SDS011;58212;47.034;7.376;2024-01-16T10:11:39;11.60;;;8.13;;
56373;SDS011;58212;47.034;7.376;2024-01-16T10:14:06;12.60;;;8.13;;
56373;SDS011;58212;47.034;7.376;2024-01-16T10:19:26;11.10;;;7.60;;
56373;SDS011;58212;47.034;7.376;2024-01-16T10:21:55;11.73;;;7.65;;
56373;SDS011;58212;47.034;7.376;2024-01-16T10:24:32;12.52;;;8.00;;
56373;SDS011;58212;47.034;7.376;2024-01-16T10:27:01;11.05;;;7.40;;
56373;SDS011;58212;47.034;7.376;2024-01-16T10:29:28;12.10;;;8.35;;
56373;SDS011;58212;47.034;7.376;2024-01-16T10:31:56;13.27;;;8.23;;
56373;SDS011;58212;47.034;7.376;2024-01-16T10:34:23;10.63;;;7.65;;
56373;SDS011;58212;47.034;7.376;2024-01-16T10:36:51;12.10;;;8.07;;
56373;SDS011;58212;47.034;7.376;2024-01-16T10:39:20;13.70;;;8.05;;
56373;SDS011;58212;47.034;7.376;2024-01-16T10:41:56;14.73;;;8.50;;
56373;SDS011;58212;47.034;7.376;2024-01-16T10:44:24;13.63;;;8.70;;
56373;SDS011;58212;47.034;7.376;2024-01-16T10:46:52;17.02;;;8.40;;
56373;SDS011;58212;47.034;7.376;2024-01-16T10:49:37;11.93;;;8.07;;
56373;SDS011;58212;47.034;7.376;2024-01-16T10:52:04;13.07;;;8.52;;
56373;SDS011;58212;47.034;7.376;2024-01-16T10:54:38;13.70;;;8.82;;
56373;SDS011;58212;47.034;7.376;2024-01-16T10:57:08;11.57;;;8.27;;
56373;SDS011;58212;47.034;7.376;2024-01-16T10:59:37;15.80;;;9.45;;
56373;SDS011;58212;47.034;7.376;2024-01-16T11:02:10;13.95;;;9.30;;
56373;SDS011;58212;47.034;7.376;2024-01-16T11:04:40;12.65;;;8.50;;
56373;SDS011;58212;47.034;7.376;2024-01-16T11:07:09;11.63;;;8.52;;
56373;SDS011;58212;47.034;7.376;2024-01-16T11:09:39;14.63;;;8.75;;
56373;SDS011;58212;47.034;7.376;2024-01-16T11:12:08;12.40;;;8.70;;
56373;SDS011;58212;47.034;7.376;2024-01-16T11:14:42;13.45;;;9.57;;
56373;SDS011;58212;47.034;7.376;2024-01-16T11:17:10;13.68;;;8.35;;
56373;SDS011;58212;47.034;7.376;2024-01-16T11:19:43;14.23;;;9.07;;
56373;SDS011;58212;47.034;7.376;2024-01-16T11:22:11;12.27;;;8.80;;
56373;SDS011;58212;47.034;7.376;2024-01-16T11:24:40;12.50;;;7.95;;
56373;SDS011;58212;47.034;7.376;2024-01-16T11:27:07;12.75;;;9.25;;
56373;SDS011;58212;47.034;7.376;2024-01-16T11:29:36;11.93;;;8.60;;
56373;SDS011;58212;47.034;7.376;2024-01-16T11:32:03;13.63;;;9.00;;
56373;SDS011;58212;47.034;7.376;2024-01-16T11:37:30;13.05;;;8.65;;
56373;SDS011;58212;47.034;7.376;2024-01-16T11:40:22;16.00;;;9.20;;
56373;SDS011;58212;47.034;7.376;2024-01-16T11:42:51;12.90;;;9.20;;
56373;SDS011;58212;47.034;7.376;2024-01-16T11:48:17;14.05;;;9.43;;
56373;SDS011;58212;47.034;7.376;2024-01-16T11:50:45;13.75;;;9.30;;
56373;SDS011;58212;47.034;7.376;2024-01-16T11:53:32;11.23;;;9.10;;
56373;SDS011;58212;47.034;7.376;2024-01-16T11:56:09;12.07;;;8.75;;
56373;SDS011;58212;47.034;7.376;2024-01-16T11:58:57;15.15;;;9.95;;
56373;SDS011;58212;47.034;7.376;2024-01-16T12:01:38;11.05;;;8.57;;
56373;SDS011;58212;47.034;7.376;2024-01-16T12:04:11;10.88;;;8.38;;
56373;SDS011;58212;47.034;7.376;2024-01-16T12:06:37;13.20;;;8.73;;
56373;SDS011;58212;47.034;7.376;2024-01-16T12:09:13;12.80;;;8.93;;
56373;SDS011;58212;47.034;7.376;2024-01-16T12:11:43;14.82;;;9.35;;
56373;SDS011;58212;47.034;7.376;2024-01-16T12:14:11;13.07;;;9.32;;
56373;SDS011;58212;47.034;7.376;2024-01-16T12:19:37;17.13;;;9.73;;
56373;SDS011;58212;47.034;7.376;2024-01-16T12:22:08;16.17;;;9.82;;
56373;SDS011;58212;47.034;7.376;2024-01-16T12:24:36;12.55;;;9.35;;
56373;SDS011;58212;47.034;7.376;2024-01-16T12:27:06;12.07;;;9.05;;
56373;SDS011;58212;47.034;7.376;2024-01-16T12:29:33;12.65;;;8.15;;
56373;SDS011;58212;47.034;7.376;2024-01-16T12:32:07;11.68;;;8.07;;
56373;SDS011;58212;47.034;7.376;2024-01-16T12:34:35;12.43;;;8.68;;
56373;SDS011;58212;47.034;7.376;2024-01-16T12:37:09;11.13;;;8.18;;
56373;SDS011;58212;47.034;7.376;2024-01-16T12:39:37;11.77;;;8.32;;
56373;SDS011;58212;47.034;7.376;2024-01-16T12:42:04;15.45;;;8.63;;
56373;SDS011;58212;47.034;7.376;2024-01-16T12:44:32;11.55;;;8.50;;
56373;SDS011;58212;47.034;7.376;2024-01-16T12:46:59;15.60;;;9.02;;
56373;SDS011;58212;47.034;7.376;2024-01-16T12:49:27;10.10;;;8.63;;
56373;SDS011;58212;47.034;7.376;2024-01-16T12:54:44;10.88;;;8.32;;
56373;SDS011;58212;47.034;7.376;2024-01-16T12:57:17;10.77;;;8.13;;
56373;SDS011;58212;47.034;7.376;2024-01-16T12:59:45;11.07;;;8.15;;
56373;SDS011;58212;47.034;7.376;2024-01-16T13:02:20;10.60;;;7.90;;
56373;SDS011;58212;47.034;7.376;2024-01-16T13:04:48;9.85;;;7.70;;
56373;SDS011;58212;47.034;7.376;2024-01-16T13:07:22;9.93;;;7.88;;
56373;SDS011;58212;47.034;7.376;2024-01-16T13:09:49;11.82;;;8.13;;
56373;SDS011;58212;47.034;7.376;2024-01-16T13:12:20;11.10;;;8.10;;
56373;SDS011;58212;47.034;7.376;2024-01-16T13:14:47;10.27;;;7.55;;
56373;SDS011;58212;47.034;7.376;2024-01-16T13:17:15;11.55;;;8.35;;
56373;SDS011;58212;47.034;7.376;2024-01-16T13:19:42;10.18;;;7.07;;
56373;SDS011;58212;47.034;7.376;2024-01-16T13:22:09;9.57;;;7.25;;
56373;SDS011;58212;47.034;7.376;2024-01-16T13:24:36;12.77;;;8.20;;
56373;SDS011;58212;47.034;7.376;2024-01-16T13:27:03;10.77;;;7.68;;
56373;SDS011;58212;47.034;7.376;2024-01-16T13:29:35;9.73;;;6.70;;
56373;SDS011;58212;47.034;7.376;2024-01-16T13:32:04;9.35;;;7.20;;
56373;SDS011;58212;47.034;7.376;2024-01-16T13:34:31;10.80;;;7.07;;
56373;SDS011;58212;47.034;7.376;2024-01-16T13:36:59;10.07;;;7.13;;
56373;SDS011;58212;47.034;7.376;2024-01-16T13:39:28;15.52;;;8.07;;
56373;SDS011;58212;47.034;7.376;2024-01-16T13:41:57;12.10;;;6.90;;
56373;SDS011;58212;47.034;7.376;2024-01-16T13:44:24;8.32;;;6.63;;
56373;SDS011;58212;47.034;7.376;2024-01-16T13:46:53;14.02;;;7.43;;
56373;SDS011;58212;47.034;7.376;2024-01-16T13:49:20;9.75;;;7.55;;
56373;SDS011;58212;47.034;7.376;2024-01-16T13:51:47;9.63;;;6.80;;
56373;SDS011;58212;47.034;7.376;2024-01-16T13:54:14;8.73;;;6.50;;
56373;SDS011;58212;47.034;7.376;2024-01-16T13:56:41;8.70;;;7.45;;
56373;SDS011;58212;47.034;7.376;2024-01-16T13:59:09;8.85;;;7.05;;
56373;SDS011;58212;47.034;7.376;2024-01-16T14:01:37;9.48;;;7.55;;
56373;SDS011;58212;47.034;7.376;2024-01-16T14:04:06;15.27;;;7.72;;
56373;SDS011;58212;47.034;7.376;2024-01-16T14:06:33;9.18;;;7.28;;
56373;SDS011;58212;47.034;7.376;2024-01-16T14:09:00;9.77;;;7.57;;
56373;SDS011;58212;47.034;7.376;2024-01-16T14:11:28;11.40;;;7.40;;
56373;SDS011;58212;47.034;7.376;2024-01-16T14:13:54;11.45;;;8.05;;
56373;SDS011;58212;47.034;7.376;2024-01-16T14:16:22;10.02;;;7.20;;
56373;SDS011;58212;47.034;7.376;2024-01-16T14:18:49;9.20;;;7.45;;
56373;SDS011;58212;47.034;7.376;2024-01-16T14:21:18;15.25;;;8.05;;
56373;SDS011;58212;47.034;7.376;2024-01-16T14:23:45;9.52;;;7.45;;
56373;SDS011;58212;47.034;7.376;2024-01-16T14:26:12;10.00;;;7.63;;
56373;SDS011;58212;47.034;7.376;2024-01-16T14:28:41;10.60;;;7.85;;
56373;SDS011;58212;47.034;7.376;2024-01-16T14:31:09;11.15;;;7.68;;
56373;SDS011;58212;47.034;7.376;2024-01-16T14:33:39;9.48;;;6.85;;
56373;SDS011;58212;47.034;7.376;2024-01-16T14:36:07;9.48;;;7.60;;
56373;SDS011;58212;47.034;7.376;2024-01-16T14:38:36;9.68;;;6.93;;
56373;SDS011;58212;47.034;7.376;2024-01-16T14:41:03;11.50;;;7.47;;
56373;SDS011;58212;47.034;7.376;2024-01-16T14:43:30;9.40;;;7.25;;
56373;SDS011;58212;47.034;7.376;2024-01-16T14:45:57;9.85;;;7.57;;
56373;SDS011;58212;47.034;7.376;2024-01-16T14:48:24;11.80;;;7.15;;
56373;SDS011;58212;47.034;7.376;2024-01-16T14:50:51;9.52;;;6.75;;
56373;SDS011;58212;47.034;7.376;2024-01-16T14:53:18;10.10;;;6.60;;
56373;SDS011;58212;47.034;7.376;2024-01-16T14:55:46;9.15;;;7.00;;
56373;SDS011;58212;47.034;7.376;2024-01-16T14:58:13;9.30;;;7.15;;